Krasna, Czech Republic

7:32 PM CEST on April 27, 2017 (GMT +0200)
Schoenwald i. Fichtelgebirge | | Change Station

Elev 2090 ft 50.20 °N, 12.09 °E | Updated 7 minutes ago

Overcast
Overcast
40.3 °F
Feels Like 40 °F
N
3.0
Wind Variable Wind from SE
Gusts 4.0 mph

Today
High -- | Low -- °F
--% Chance of Precip.
Yesterday
High -- | Low -- °F
Precip. -- in
Pressure 29.92 in
Visibility 6.2 miles
Clouds Scattered Clouds 4800 ft
Mostly Cloudy 6200 ft
Windchill 40 °F
Dew Point 34 °F
Humidity 78%
Rainfall 0.00 in
Snow Depth Not available.
5:54 AM 8:24 PM
New Moon, 2% visible
METAR EDQM 271720Z VRB02KT 9999 SCT048 BKN062 06/M01 Q1013
Pressure 29.92 in
Visibility 6.2 miles
Clouds Scattered Clouds 4800 ft
Mostly Cloudy 6200 ft
Windchill 40 °F
Dew Point 34 °F
Humidity 78%
Rainfall 0.00 in
Snow Depth Not available.
5:54 AM 8:24 PM
New Moon, 2% visible
METAR EDQM 271720Z VRB02KT 9999 SCT048 BKN062 06/M01 Q1013

Get Severe Weather Alerts

Thanks for signing up!

Be on the lookout for a verification email in your inbox.

You'll start receiving the daily forecast at 8 AM.

×

10-Day Weather Forecast

×

Almanac

Astronomy

Apr. 27, 2017 Rise Set
Actual Time
Civil Twilight
Nautical Twilight
Astronomical Twilight
Moon
Length of Visible Light
Length of Day
Tomorrow will be .
, % of the Moon is Illuminated

Today's Extremes

Country Highs Country Lows

Community

WunderPhotos

WunderBlog® & News

Nearby

Air Quality

  Air Quality AQ Index Pollutant
Not available.

Snow Depth

Station Depth Elevation

Earthquake Activity

City Distance Mag. Time & Date
Minimum magnitude displayed is 2.5.

Coastal Water Temperatures

Place Temperature

Stations

Nearby Weather Stations

Station Location Temp. Windchill Dew Point Humidity Wind Precip. Elev Updated Type